createdAt,value
2024-03-12T00:01:01.571Z,3.57
2024-03-12T00:03:28.909Z,3.97
2024-03-12T00:06:00.787Z,3.77
2024-03-12T00:08:30.847Z,4.23
2024-03-12T00:10:58.305Z,4.27
2024-03-12T00:13:24.940Z,3.80
2024-03-12T00:15:51.686Z,4.40
2024-03-12T00:18:18.456Z,3.23
2024-03-12T00:20:46.704Z,4.30
2024-03-12T00:23:13.465Z,4.10
2024-03-12T00:25:41.726Z,4.27
2024-03-12T00:28:09.641Z,4.30
2024-03-12T00:30:41.863Z,3.80
2024-03-12T00:33:09.108Z,3.83
2024-03-12T00:35:36.616Z,3.60
2024-03-12T00:38:06.717Z,3.93
2024-03-12T00:40:37.469Z,3.70
2024-03-12T00:43:07.070Z,3.90
2024-03-12T00:45:40.653Z,4.07
2024-03-12T00:48:10.746Z,4.00
2024-03-12T00:50:38.344Z,3.87
2024-03-12T00:53:05.376Z,3.60
2024-03-12T00:55:32.824Z,3.77
2024-03-12T00:58:00.191Z,3.70
2024-03-12T01:00:35.511Z,3.87
2024-03-12T01:03:02.486Z,3.87
2024-03-12T01:05:32.867Z,3.67
2024-03-12T01:08:01.066Z,4.00
2024-03-12T01:10:29.683Z,3.50
2024-03-12T01:12:57.741Z,3.67
2024-03-12T01:15:25.075Z,3.73
2024-03-12T01:17:54.615Z,3.97
2024-03-12T01:20:21.977Z,3.37
2024-03-12T01:22:51.418Z,3.60
2024-03-12T01:25:18.675Z,3.23
2024-03-12T01:27:45.467Z,3.23
2024-03-12T01:30:17.382Z,4.00
2024-03-12T01:32:48.537Z,3.63
2024-03-12T01:35:15.318Z,3.97
2024-03-12T01:37:43.807Z,3.80
2024-03-12T01:40:31.035Z,3.60
2024-03-12T01:43:07.777Z,3.70
2024-03-12T01:45:35.091Z,4.03
2024-03-12T01:48:10.888Z,3.83
2024-03-12T01:50:40.932Z,3.57
2024-03-12T01:53:08.819Z,3.87
2024-03-12T01:55:43.634Z,4.27
2024-03-12T01:58:17.094Z,3.73
2024-03-12T02:00:45.906Z,3.80
2024-03-12T02:03:13.081Z,4.20
2024-03-12T02:05:41.974Z,3.77
2024-03-12T02:08:08.672Z,4.47
2024-03-12T02:10:35.304Z,3.23
2024-03-12T02:13:01.961Z,3.90
2024-03-12T02:15:28.671Z,4.30
2024-03-12T02:17:55.506Z,4.20
2024-03-12T02:20:23.001Z,4.00
2024-03-12T02:22:55.578Z,4.50
2024-03-12T02:25:23.270Z,4.43
2024-03-12T02:27:51.582Z,4.67
2024-03-12T02:30:19.036Z,4.13
2024-03-12T02:32:49.557Z,4.00
2024-03-12T02:35:17.311Z,3.97
2024-03-12T02:37:44.379Z,3.83
2024-03-12T02:40:14.437Z,4.27
2024-03-12T02:42:42.526Z,4.17
2024-03-12T02:45:11.437Z,4.40
2024-03-12T02:47:38.140Z,4.80
2024-03-12T02:50:07.360Z,4.37
2024-03-12T02:52:34.076Z,4.43
2024-03-12T02:55:01.864Z,4.17
2024-03-12T02:57:28.683Z,4.73
2024-03-12T02:59:55.343Z,4.73
2024-03-12T03:02:22.732Z,4.30
2024-03-12T03:04:49.392Z,4.77
2024-03-12T03:07:18.240Z,4.93
2024-03-12T03:09:45.510Z,4.60
2024-03-12T03:12:12.608Z,4.30
2024-03-12T03:14:39.254Z,4.30
2024-03-12T03:17:08.428Z,5.77
2024-03-12T03:19:35.172Z,4.53
2024-03-12T03:22:02.185Z,4.60
2024-03-12T03:24:28.914Z,5.07
2024-03-12T03:26:55.855Z,5.23
2024-03-12T03:29:23.761Z,5.57
2024-03-12T03:31:50.715Z,4.70
2024-03-12T03:34:19.014Z,5.07
2024-03-12T03:36:45.915Z,5.10
2024-03-12T03:39:12.647Z,6.17
2024-03-12T03:41:40.059Z,7.00
2024-03-12T03:44:06.773Z,6.90
2024-03-12T03:46:33.998Z,7.57
2024-03-12T03:49:00.813Z,8.43
2024-03-12T03:51:27.600Z,8.80
2024-03-12T03:53:54.315Z,8.77
2024-03-12T03:56:22.835Z,9.47
2024-03-12T03:58:49.878Z,8.30
2024-03-12T04:01:16.781Z,9.10
2024-03-12T04:03:43.612Z,10.67
2024-03-12T04:06:10.358Z,9.70
2024-03-12T04:08:37.149Z,8.90
2024-03-12T04:11:04.784Z,9.83
2024-03-12T04:13:33.523Z,10.23
2024-03-12T04:16:00.995Z,8.27
2024-03-12T04:18:29.707Z,9.67
2024-03-12T04:20:56.880Z,9.57
2024-03-12T04:23:23.657Z,10.13
2024-03-12T04:25:50.410Z,9.97
2024-03-12T04:28:19.077Z,10.10
2024-03-12T04:30:46.295Z,10.43
2024-03-12T04:33:13.053Z,10.83
2024-03-12T04:35:39.732Z,10.70
2024-03-12T04:38:09.064Z,10.60
2024-03-12T04:40:35.892Z,10.67
2024-03-12T04:43:03.574Z,10.30
2024-03-12T04:45:30.449Z,11.37
2024-03-12T04:47:57.166Z,12.10
2024-03-12T04:50:24.583Z,11.00
2024-03-12T04:52:51.567Z,11.27
2024-03-12T04:55:18.744Z,11.90
2024-03-12T04:57:45.567Z,11.83
2024-03-12T05:00:16.573Z,11.37
2024-03-12T05:02:44.612Z,12.80
2024-03-12T05:05:24.609Z,12.77
2024-03-12T05:07:54.164Z,12.70
2024-03-12T05:10:25.596Z,12.27
2024-03-12T05:12:52.722Z,12.40
2024-03-12T05:15:21.045Z,11.70
2024-03-12T05:17:49.617Z,11.93
2024-03-12T05:20:18.738Z,12.30
2024-03-12T05:22:46.271Z,12.57
2024-03-12T05:25:33.482Z,12.50
2024-03-12T05:28:03.366Z,11.80
2024-03-12T05:30:31.185Z,12.97
2024-03-12T05:32:57.945Z,12.93
2024-03-12T05:35:30.947Z,13.47
2024-03-12T05:38:05.058Z,13.03
2024-03-12T05:40:53.031Z,12.57
2024-03-12T05:43:38.679Z,12.53
2024-03-12T05:46:24.158Z,12.90
2024-03-12T05:48:51.997Z,13.73
2024-03-12T05:51:20.280Z,13.63
2024-03-12T05:53:46.972Z,13.47
2024-03-12T05:56:16.030Z,13.73
2024-03-12T05:58:46.536Z,12.87
2024-03-12T06:01:13.398Z,13.17
2024-03-12T06:03:40.351Z,13.90
2024-03-12T06:06:08.630Z,14.00
2024-03-12T06:08:36.132Z,13.93
2024-03-12T06:11:02.969Z,16.00
2024-03-12T06:13:29.737Z,15.03
2024-03-12T06:15:56.476Z,14.83
2024-03-12T06:18:26.131Z,17.27
2024-03-12T06:20:52.844Z,15.87
2024-03-12T06:23:19.981Z,18.47
2024-03-12T06:25:47.541Z,18.13
2024-03-12T06:28:15.783Z,17.90
2024-03-12T06:30:44.314Z,17.40
2024-03-12T06:33:13.084Z,19.90
2024-03-12T06:35:41.072Z,19.27
2024-03-12T06:38:07.836Z,20.70
2024-03-12T06:40:35.587Z,18.77
2024-03-12T06:43:02.352Z,20.87
2024-03-12T06:45:29.258Z,21.13
2024-03-12T06:47:57.965Z,20.10
2024-03-12T06:50:26.606Z,20.30
2024-03-12T06:52:57.298Z,20.53
2024-03-12T06:55:28.187Z,19.90
2024-03-12T06:58:00.932Z,21.03
2024-03-12T07:00:33.255Z,20.63
2024-03-12T07:03:00.367Z,18.90
2024-03-12T07:05:30.415Z,21.20
2024-03-12T07:07:57.637Z,20.40
2024-03-12T07:10:26.445Z,19.27
2024-03-12T07:12:54.938Z,19.77
2024-03-12T07:15:21.728Z,21.30
2024-03-12T07:17:48.954Z,20.50
2024-03-12T07:20:21.548Z,20.37
2024-03-12T07:22:48.928Z,20.00
2024-03-12T07:25:17.894Z,21.77
2024-03-12T07:27:45.147Z,21.40
2024-03-12T07:30:12.156Z,19.73
2024-03-12T07:32:38.980Z,21.00
2024-03-12T07:35:06.623Z,21.80
2024-03-12T07:37:40.529Z,19.83
2024-03-12T07:40:13.002Z,19.40
2024-03-12T07:42:43.945Z,18.73
2024-03-12T07:45:11.757Z,17.47
2024-03-12T07:47:41.507Z,18.63
2024-03-12T07:50:09.806Z,17.63
2024-03-12T07:52:36.861Z,19.17
2024-03-12T07:55:04.083Z,16.77
2024-03-12T07:57:34.465Z,15.57
2024-03-12T08:00:01.457Z,14.43
2024-03-12T08:02:31.146Z,15.33
2024-03-12T08:04:58.670Z,14.73
2024-03-12T08:07:25.480Z,13.83
2024-03-12T08:09:52.267Z,13.50
2024-03-12T08:12:20.591Z,13.23
2024-03-12T08:14:47.372Z,14.43
2024-03-12T08:17:14.137Z,13.70
2024-03-12T08:19:43.616Z,13.60
2024-03-12T08:22:10.929Z,11.93
2024-03-12T08:24:38.503Z,14.37
2024-03-12T08:27:08.558Z,14.50
2024-03-12T08:29:35.364Z,12.43
2024-03-12T08:32:02.192Z,11.23
2024-03-12T08:34:29.359Z,11.93
2024-03-12T08:36:57.131Z,11.97
2024-03-12T08:39:28.726Z,11.30
2024-03-12T08:41:56.296Z,10.93
2024-03-12T08:44:23.223Z,12.00
2024-03-12T08:46:51.059Z,10.67
2024-03-12T08:49:18.283Z,10.83
2024-03-12T08:51:46.122Z,11.23
2024-03-12T08:54:14.807Z,9.50
2024-03-12T08:56:43.938Z,10.63
2024-03-12T08:59:13.062Z,10.67
2024-03-12T09:01:40.658Z,9.47
2024-03-12T09:04:08.979Z,9.73
2024-03-12T09:06:36.647Z,10.80
2024-03-12T09:09:03.548Z,9.60
2024-03-12T09:11:30.263Z,11.43
2024-03-12T09:13:56.942Z,10.80
2024-03-12T09:16:23.722Z,11.83
2024-03-12T09:18:50.389Z,12.10
2024-03-12T09:21:18.272Z,12.23
2024-03-12T09:23:53.135Z,13.77
2024-03-12T09:26:28.774Z,16.90
2024-03-12T09:28:55.497Z,13.60
2024-03-12T09:31:22.151Z,14.00
2024-03-12T09:33:49.047Z,15.40
2024-03-12T09:36:15.985Z,13.60
2024-03-12T09:38:45.012Z,15.57
2024-03-12T09:41:14.140Z,12.93
2024-03-12T09:43:44.885Z,13.87
2024-03-12T09:46:13.021Z,14.93
2024-03-12T09:48:40.827Z,16.30
2024-03-12T09:51:08.105Z,15.73
2024-03-12T09:53:34.803Z,15.00
2024-03-12T09:56:07.610Z,15.43
2024-03-12T09:58:37.998Z,14.87
2024-03-12T10:01:05.189Z,14.17
2024-03-12T10:03:32.784Z,15.30
2024-03-12T10:05:59.801Z,14.30
2024-03-12T10:08:29.623Z,13.83
2024-03-12T10:10:57.810Z,13.30
2024-03-12T10:13:24.979Z,13.80
2024-03-12T10:15:57.473Z,11.77
2024-03-12T10:18:25.536Z,13.73
2024-03-12T10:21:01.421Z,11.90
2024-03-12T10:23:37.321Z,11.30
2024-03-12T10:26:14.128Z,11.93
2024-03-12T10:28:41.123Z,12.47
2024-03-12T10:31:13.652Z,12.67
2024-03-12T10:33:49.680Z,11.60
2024-03-12T10:36:34.369Z,12.40
2024-03-12T10:39:07.313Z,12.37
2024-03-12T10:41:34.500Z,11.53
2024-03-12T10:44:19.109Z,10.47
2024-03-12T10:46:46.461Z,12.00
2024-03-12T10:49:14.593Z,11.83
2024-03-12T10:51:43.770Z,10.67
2024-03-12T10:54:22.690Z,11.60
2024-03-12T10:56:50.069Z,11.37
2024-03-12T10:59:19.561Z,12.67
2024-03-12T11:01:48.914Z,11.33
2024-03-12T11:04:17.058Z,12.20
2024-03-12T11:06:44.938Z,12.73
2024-03-12T11:09:19.077Z,14.00
2024-03-12T11:11:45.729Z,11.63
2024-03-12T11:14:13.226Z,11.93
2024-03-12T11:16:41.620Z,12.07
2024-03-12T11:19:24.081Z,11.20
2024-03-12T11:21:52.760Z,11.93
2024-03-12T11:24:31.196Z,10.97
2024-03-12T11:27:01.862Z,12.73
2024-03-12T11:30:04.959Z,12.37
2024-03-12T11:32:36.628Z,12.73
2024-03-12T11:35:09.437Z,11.67
2024-03-12T11:37:38.930Z,12.70
2024-03-12T11:40:32.053Z,17.63
2024-03-12T11:42:59.674Z,15.83
2024-03-12T11:45:38.544Z,12.27
2024-03-12T11:48:08.651Z,13.30
2024-03-12T11:50:38.101Z,13.93
2024-03-12T11:53:24.802Z,15.10
2024-03-12T11:56:01.036Z,14.30
2024-03-12T11:58:32.647Z,15.47
2024-03-12T12:01:01.129Z,14.73
2024-03-12T12:03:29.016Z,14.33
2024-03-12T12:05:56.143Z,14.27
2024-03-12T12:08:24.701Z,14.30
2024-03-12T12:11:10.878Z,15.60
2024-03-12T12:13:38.547Z,13.20
2024-03-12T12:16:07.404Z,15.20
2024-03-12T12:18:36.246Z,13.93
2024-03-12T12:21:09.953Z,15.60
2024-03-12T12:23:40.131Z,13.97
2024-03-12T12:26:13.067Z,15.03
2024-03-12T12:28:41.268Z,13.90
2024-03-12T12:31:13.008Z,14.57
2024-03-12T12:33:45.140Z,15.17
2024-03-12T12:36:14.972Z,15.60
2024-03-12T12:38:51.990Z,15.77
2024-03-12T12:41:23.478Z,14.60
2024-03-12T12:43:53.340Z,16.37
2024-03-12T12:46:28.083Z,16.37
2024-03-12T12:48:55.095Z,16.47
2024-03-12T12:51:24.849Z,16.37
2024-03-12T12:53:53.148Z,16.40
2024-03-12T12:56:20.916Z,17.17
2024-03-12T12:58:48.557Z,17.60
2024-03-12T13:01:16.818Z,18.57
2024-03-12T13:03:47.654Z,17.07
2024-03-12T13:06:17.089Z,15.63
2024-03-12T13:09:04.585Z,15.27
2024-03-12T13:11:32.783Z,15.47
2024-03-12T13:13:59.514Z,15.07
2024-03-12T13:16:26.145Z,14.17
2024-03-12T13:18:57.019Z,14.37
2024-03-12T13:21:26.394Z,15.13
2024-03-12T13:23:54.317Z,14.03
2024-03-12T13:26:23.914Z,14.37
2024-03-12T13:28:55.071Z,14.70
2024-03-12T13:31:23.285Z,15.57
2024-03-12T13:33:51.870Z,15.63
2024-03-12T13:36:20.386Z,13.90
2024-03-12T13:38:47.114Z,15.37
2024-03-12T13:41:16.207Z,21.43
2024-03-12T13:43:45.401Z,17.07
2024-03-12T13:46:12.163Z,14.67
2024-03-12T13:48:40.928Z,15.37
2024-03-12T13:51:09.155Z,14.83
2024-03-12T13:53:36.524Z,15.97
2024-03-12T13:56:05.421Z,15.97
2024-03-12T13:58:35.402Z,15.80
2024-03-12T14:01:02.726Z,16.70
2024-03-12T14:03:29.628Z,17.77
2024-03-12T14:05:57.346Z,16.47
2024-03-12T14:08:24.563Z,15.23
2024-03-12T14:10:52.708Z,16.40
2024-03-12T14:13:20.560Z,16.50
2024-03-12T14:15:50.556Z,15.17
2024-03-12T14:18:22.105Z,15.20
2024-03-12T14:20:51.932Z,16.53
2024-03-12T14:23:19.698Z,16.20
2024-03-12T14:25:46.630Z,15.73
2024-03-12T14:28:13.423Z,15.63
2024-03-12T14:30:40.135Z,14.83
2024-03-12T14:33:07.373Z,14.47
2024-03-12T14:35:34.157Z,16.83
2024-03-12T14:38:00.862Z,14.47
2024-03-12T14:40:27.599Z,15.87
2024-03-12T14:42:55.802Z,15.53
2024-03-12T14:45:25.635Z,15.07
2024-03-12T14:47:52.517Z,15.30
2024-03-12T14:50:19.463Z,16.17
2024-03-12T14:52:46.931Z,15.83
2024-03-12T14:55:14.288Z,15.40
2024-03-12T14:57:42.021Z,15.37
2024-03-12T15:00:11.589Z,14.50
2024-03-12T15:02:38.619Z,14.97
2024-03-12T15:05:15.523Z,14.57
2024-03-12T15:07:44.477Z,13.03
2024-03-12T15:10:12.405Z,12.60
2024-03-12T15:12:40.976Z,12.50
2024-03-12T15:15:12.580Z,12.03
2024-03-12T15:17:40.306Z,11.50
2024-03-12T15:20:16.772Z,10.73
2024-03-12T15:22:44.606Z,10.77
2024-03-12T15:25:16.035Z,10.63
2024-03-12T15:27:43.391Z,11.13
2024-03-12T15:30:11.047Z,11.23
2024-03-12T15:32:39.497Z,12.07
2024-03-12T15:35:07.443Z,11.03
2024-03-12T15:37:36.524Z,11.50
2024-03-12T15:40:13.773Z,11.10
2024-03-12T15:42:45.182Z,11.20
2024-03-12T15:45:13.496Z,11.00
2024-03-12T15:47:40.925Z,12.17
2024-03-12T15:50:08.509Z,11.40
2024-03-12T15:52:35.387Z,11.60
2024-03-12T15:55:02.990Z,13.07
2024-03-12T15:57:32.827Z,10.83
2024-03-12T15:59:59.525Z,12.60
2024-03-12T16:02:26.289Z,12.57
2024-03-12T16:04:53.475Z,14.27
2024-03-12T16:07:20.293Z,12.47
2024-03-12T16:09:47.277Z,12.83
2024-03-12T16:12:14.521Z,11.10
2024-03-12T16:14:42.218Z,11.23
2024-03-12T16:17:09.303Z,58.70
2024-03-12T16:19:36.223Z,12.97
2024-03-12T16:22:02.926Z,11.17
2024-03-12T16:24:32.434Z,10.00
2024-03-12T16:26:59.906Z,11.50
2024-03-12T16:29:27.846Z,11.13
2024-03-12T16:31:55.451Z,10.77
2024-03-12T16:34:22.250Z,11.50
2024-03-12T16:36:49.026Z,12.10
2024-03-12T16:39:15.729Z,12.50
2024-03-12T16:41:43.561Z,11.17
2024-03-12T16:44:10.713Z,12.47
2024-03-12T16:46:37.500Z,12.57
2024-03-12T16:49:04.898Z,12.17
2024-03-12T16:51:35.204Z,12.93
2024-03-12T16:54:03.345Z,12.37
2024-03-12T16:56:33.685Z,13.00
2024-03-12T16:59:01.416Z,13.63
2024-03-12T17:01:28.907Z,11.50
2024-03-12T17:03:55.898Z,12.20
2024-03-12T17:06:23.359Z,12.03
2024-03-12T17:08:50.505Z,12.03
2024-03-12T17:11:17.451Z,11.57
2024-03-12T17:13:44.387Z,12.10
2024-03-12T17:16:14.041Z,11.30
2024-03-12T17:18:41.745Z,12.37
2024-03-12T17:21:09.777Z,12.97
2024-03-12T17:23:37.692Z,11.27
2024-03-12T17:26:05.368Z,12.20
2024-03-12T17:28:34.153Z,11.87
2024-03-12T17:31:01.146Z,12.10
2024-03-12T17:33:28.270Z,12.33
2024-03-12T17:35:56.107Z,10.67
2024-03-12T17:38:25.644Z,11.20
2024-03-12T17:40:59.214Z,11.43
2024-03-12T17:43:27.222Z,11.83
2024-03-12T17:45:54.371Z,11.10
2024-03-12T17:48:21.891Z,11.83
2024-03-12T17:50:48.834Z,11.83
2024-03-12T17:53:17.346Z,17.83
2024-03-12T17:55:47.773Z,12.70
2024-03-12T17:58:17.267Z,12.00
2024-03-12T18:00:45.118Z,12.73
2024-03-12T18:03:12.679Z,11.40
2024-03-12T18:05:39.417Z,11.00
2024-03-12T18:08:13.673Z,11.90
2024-03-12T18:10:42.897Z,12.07
2024-03-12T18:13:11.638Z,11.03
2024-03-12T18:15:38.398Z,12.60
2024-03-12T18:18:06.102Z,11.43
2024-03-12T18:20:34.671Z,12.67
2024-03-12T18:23:01.364Z,11.37
2024-03-12T18:25:28.178Z,12.10
2024-03-12T18:27:57.083Z,10.70
2024-03-12T18:30:24.150Z,11.13
2024-03-12T18:32:50.943Z,11.40
2024-03-12T18:35:19.684Z,10.87
2024-03-12T18:37:46.461Z,11.43
2024-03-12T18:40:14.641Z,10.97
2024-03-12T18:42:44.307Z,12.03
2024-03-12T18:45:13.882Z,11.23
2024-03-12T18:47:41.378Z,12.07
2024-03-12T18:50:16.008Z,11.77
2024-03-12T18:52:46.433Z,11.47
2024-03-12T18:55:13.814Z,11.93
2024-03-12T18:57:42.022Z,10.73
2024-03-12T19:00:10.663Z,11.63
2024-03-12T19:02:40.076Z,11.03
2024-03-12T19:05:17.699Z,11.77
2024-03-12T19:07:52.083Z,11.07
2024-03-12T19:10:20.371Z,10.67
2024-03-12T19:12:47.961Z,10.13
2024-03-12T19:15:16.706Z,10.70
2024-03-12T19:17:45.880Z,10.60
2024-03-12T19:20:19.302Z,11.03
2024-03-12T19:22:48.035Z,12.17
2024-03-12T19:25:16.678Z,10.60
2024-03-12T19:27:46.122Z,11.47
2024-03-12T19:30:14.794Z,10.87
2024-03-12T19:32:42.404Z,12.03
2024-03-12T19:35:09.865Z,11.43
2024-03-12T19:37:38.165Z,11.47
2024-03-12T19:40:12.204Z,12.60
2024-03-12T19:42:45.929Z,11.03
2024-03-12T19:45:13.933Z,12.00
2024-03-12T19:47:46.838Z,13.37
2024-03-12T19:50:18.966Z,12.03
2024-03-12T19:52:49.667Z,13.10
2024-03-12T19:55:20.436Z,12.40
2024-03-12T19:57:57.275Z,13.20
2024-03-12T20:00:26.725Z,11.87
2024-03-12T20:02:57.531Z,13.83
2024-03-12T20:05:25.641Z,13.67
2024-03-12T20:07:52.793Z,12.93
2024-03-12T20:10:20.447Z,13.60
2024-03-12T20:12:56.435Z,14.37
2024-03-12T20:15:24.495Z,13.20
2024-03-12T20:17:52.007Z,14.20
2024-03-12T20:20:19.007Z,13.97
2024-03-12T20:22:52.001Z,13.23
2024-03-12T20:25:20.131Z,14.63
2024-03-12T20:27:52.868Z,13.83
2024-03-12T20:30:22.533Z,13.50
2024-03-12T20:32:52.860Z,12.33
2024-03-12T20:35:19.698Z,12.13
2024-03-12T20:37:48.750Z,13.80
2024-03-12T20:40:15.871Z,12.80
2024-03-12T20:42:49.485Z,13.90
2024-03-12T20:45:21.441Z,14.63
2024-03-12T20:47:49.088Z,13.67
2024-03-12T20:50:18.386Z,13.43
2024-03-12T20:52:46.917Z,15.20
2024-03-12T20:55:15.123Z,14.73
2024-03-12T20:57:47.382Z,14.03
2024-03-12T21:00:19.278Z,14.82
2024-03-12T21:02:50.709Z,14.20
2024-03-12T21:05:18.991Z,13.07
2024-03-12T21:07:46.026Z,12.97
2024-03-12T21:10:13.283Z,13.97
2024-03-12T21:12:43.083Z,13.27
2024-03-12T21:15:10.052Z,13.53
2024-03-12T21:17:37.759Z,14.73
2024-03-12T21:20:13.484Z,14.27
2024-03-12T21:22:40.415Z,14.47
2024-03-12T21:25:08.140Z,13.93
2024-03-12T21:27:35.304Z,14.37
2024-03-12T21:30:06.917Z,16.23
2024-03-12T21:32:34.252Z,14.57
2024-03-12T21:35:01.482Z,15.17
2024-03-12T21:37:28.576Z,14.87
2024-03-12T21:39:55.667Z,14.17
2024-03-12T21:42:24.699Z,14.77
2024-03-12T21:44:53.776Z,15.53
2024-03-12T21:47:20.602Z,14.47
2024-03-12T21:49:47.798Z,13.67
2024-03-12T21:52:16.846Z,14.77
2024-03-12T21:54:45.465Z,14.83
2024-03-12T21:57:12.607Z,13.60
2024-03-12T21:59:40.653Z,14.03
2024-03-12T22:02:07.773Z,13.90
2024-03-12T22:04:34.738Z,14.80
2024-03-12T22:07:03.394Z,14.83
2024-03-12T22:09:31.986Z,13.87
2024-03-12T22:11:59.280Z,15.43
2024-03-12T22:14:25.996Z,14.60
2024-03-12T22:16:53.094Z,13.87
2024-03-12T22:19:20.125Z,14.93
2024-03-12T22:21:50.669Z,15.00
2024-03-12T22:24:22.995Z,15.67
2024-03-12T22:26:51.893Z,14.40
2024-03-12T22:29:18.956Z,16.13
2024-03-12T22:31:46.501Z,14.33
2024-03-12T22:34:14.110Z,13.23
2024-03-12T22:36:41.817Z,14.07
2024-03-12T22:39:09.858Z,12.87
2024-03-12T22:41:37.294Z,15.13
2024-03-12T22:44:05.600Z,14.43
2024-03-12T22:46:32.391Z,14.63
2024-03-12T22:48:59.570Z,14.93
2024-03-12T22:51:27.398Z,13.03
2024-03-12T22:53:54.528Z,13.50
2024-03-12T22:56:22.528Z,13.87
2024-03-12T22:58:49.987Z,13.20
2024-03-12T23:01:17.953Z,12.10
2024-03-12T23:03:45.713Z,13.27
2024-03-12T23:06:13.017Z,13.47
2024-03-12T23:08:40.020Z,12.97
2024-03-12T23:11:07.225Z,13.47
2024-03-12T23:13:35.242Z,12.20
2024-03-12T23:16:03.124Z,14.30
2024-03-12T23:18:31.175Z,14.07
2024-03-12T23:20:58.338Z,12.73
2024-03-12T23:23:25.111Z,12.07
2024-03-12T23:25:52.569Z,11.87
2024-03-12T23:28:22.745Z,13.10
2024-03-12T23:30:49.629Z,13.37
2024-03-12T23:33:17.172Z,12.77
2024-03-12T23:35:44.293Z,13.90
2024-03-12T23:38:12.699Z,13.27
2024-03-12T23:40:39.787Z,13.07
2024-03-12T23:43:06.641Z,13.97
2024-03-12T23:45:33.930Z,12.13
2024-03-12T23:48:03.384Z,13.40
2024-03-12T23:50:30.848Z,11.60
2024-03-12T23:52:57.933Z,13.83
2024-03-12T23:55:25.737Z,13.20
2024-03-12T23:57:54.170Z,13.17
